sensor_id;sensor_type;location;lat;lon;timestamp;P1;durP1;ratioP1;P2;durP2;ratioP2
78143;SDS011;67394;52.522;13.622;2023-07-16T00:00:17;5.60;;;3.28;;
78143;SDS011;67394;52.522;13.622;2023-07-16T00:02:43;4.22;;;2.75;;
78143;SDS011;67394;52.522;13.622;2023-07-16T00:05:10;4.50;;;2.63;;
78143;SDS011;67394;52.522;13.622;2023-07-16T00:07:36;3.20;;;2.80;;
78143;SDS011;67394;52.522;13.622;2023-07-16T00:10:03;3.55;;;2.88;;
78143;SDS011;67394;52.522;13.622;2023-07-16T00:14:56;3.45;;;2.85;;
78143;SDS011;67394;52.522;13.622;2023-07-16T00:17:22;3.90;;;2.75;;
78143;SDS011;67394;52.522;13.622;2023-07-16T00:19:49;3.75;;;3.33;;
78143;SDS011;67394;52.522;13.622;2023-07-16T00:22:15;4.00;;;3.10;;
78143;SDS011;67394;52.522;13.622;2023-07-16T00:24:42;3.65;;;2.80;;
78143;SDS011;67394;52.522;13.622;2023-07-16T00:27:08;4.03;;;3.08;;
78143;SDS011;67394;52.522;13.622;2023-07-16T00:29:35;3.00;;;2.50;;
78143;SDS011;67394;52.522;13.622;2023-07-16T00:32:01;6.30;;;3.20;;
78143;SDS011;67394;52.522;13.622;2023-07-16T00:34:27;4.20;;;2.90;;
78143;SDS011;67394;52.522;13.622;2023-07-16T00:36:54;3.80;;;2.80;;
78143;SDS011;67394;52.522;13.622;2023-07-16T00:39:20;4.32;;;2.95;;
78143;SDS011;67394;52.522;13.622;2023-07-16T00:41:47;3.60;;;2.78;;
78143;SDS011;67394;52.522;13.622;2023-07-16T00:44:13;3.85;;;3.22;;
78143;SDS011;67394;52.522;13.622;2023-07-16T00:46:39;5.75;;;3.35;;
78143;SDS011;67394;52.522;13.622;2023-07-16T00:49:06;3.50;;;3.05;;
78143;SDS011;67394;52.522;13.622;2023-07-16T00:51:33;3.92;;;2.80;;
78143;SDS011;67394;52.522;13.622;2023-07-16T00:54:00;3.47;;;3.13;;
78143;SDS011;67394;52.522;13.622;2023-07-16T00:56:27;3.22;;;2.85;;
78143;SDS011;67394;52.522;13.622;2023-07-16T00:58:54;4.00;;;3.25;;
78143;SDS011;67394;52.522;13.622;2023-07-16T01:01:21;3.70;;;2.80;;
78143;SDS011;67394;52.522;13.622;2023-07-16T01:03:47;3.58;;;2.88;;
78143;SDS011;67394;52.522;13.622;2023-07-16T01:06:14;3.60;;;3.30;;
78143;SDS011;67394;52.522;13.622;2023-07-16T01:11:47;4.05;;;3.30;;
78143;SDS011;67394;52.522;13.622;2023-07-16T01:14:16;4.50;;;3.80;;
78143;SDS011;67394;52.522;13.622;2023-07-16T01:16:43;4.43;;;3.30;;
78143;SDS011;67394;52.522;13.622;2023-07-16T01:19:10;4.22;;;3.03;;
78143;SDS011;67394;52.522;13.622;2023-07-16T01:24:53;5.00;;;3.65;;
78143;SDS011;67394;52.522;13.622;2023-07-16T01:27:59;4.28;;;3.80;;
78143;SDS011;67394;52.522;13.622;2023-07-16T01:30:32;5.68;;;4.07;;
78143;SDS011;67394;52.522;13.622;2023-07-16T01:32:59;5.50;;;3.63;;
78143;SDS011;67394;52.522;13.622;2023-07-16T01:35:29;6.47;;;3.92;;
78143;SDS011;67394;52.522;13.622;2023-07-16T01:37:56;5.18;;;4.55;;
78143;SDS011;67394;52.522;13.622;2023-07-16T01:42:49;4.85;;;4.22;;
78143;SDS011;67394;52.522;13.622;2023-07-16T01:45:15;5.30;;;4.30;;
78143;SDS011;67394;52.522;13.622;2023-07-16T01:50:33;5.85;;;4.47;;
78143;SDS011;67394;52.522;13.622;2023-07-16T01:53:00;5.00;;;4.00;;
78143;SDS011;67394;52.522;13.622;2023-07-16T01:55:26;5.13;;;4.32;;
78143;SDS011;67394;52.522;13.622;2023-07-16T01:57:53;5.53;;;4.35;;
78143;SDS011;67394;52.522;13.622;2023-07-16T02:00:20;6.03;;;4.38;;
78143;SDS011;67394;52.522;13.622;2023-07-16T02:02:46;5.25;;;4.32;;
78143;SDS011;67394;52.522;13.622;2023-07-16T02:05:14;5.65;;;4.45;;
78143;SDS011;67394;52.522;13.622;2023-07-16T02:07:41;6.15;;;4.05;;
78143;SDS011;67394;52.522;13.622;2023-07-16T02:10:07;5.47;;;4.55;;
78143;SDS011;67394;52.522;13.622;2023-07-16T02:12:34;4.90;;;4.25;;
78143;SDS011;67394;52.522;13.622;2023-07-16T02:15:00;6.78;;;4.13;;
78143;SDS011;67394;52.522;13.622;2023-07-16T02:17:26;4.85;;;4.18;;
78143;SDS011;67394;52.522;13.622;2023-07-16T02:19:53;4.47;;;3.75;;
78143;SDS011;67394;52.522;13.622;2023-07-16T02:22:20;3.85;;;3.17;;
78143;SDS011;67394;52.522;13.622;2023-07-16T02:24:46;4.57;;;3.63;;
78143;SDS011;67394;52.522;13.622;2023-07-16T02:27:13;6.18;;;3.50;;
78143;SDS011;67394;52.522;13.622;2023-07-16T02:29:39;3.97;;;3.58;;
78143;SDS011;67394;52.522;13.622;2023-07-16T02:32:05;4.25;;;3.50;;
78143;SDS011;67394;52.522;13.622;2023-07-16T02:34:32;4.07;;;3.17;;
78143;SDS011;67394;52.522;13.622;2023-07-16T02:36:59;3.53;;;2.88;;
78143;SDS011;67394;52.522;13.622;2023-07-16T02:39:25;4.90;;;2.80;;
78143;SDS011;67394;52.522;13.622;2023-07-16T02:41:52;5.10;;;2.80;;
78143;SDS011;67394;52.522;13.622;2023-07-16T02:44:18;3.85;;;3.00;;
78143;SDS011;67394;52.522;13.622;2023-07-16T02:46:44;4.55;;;2.58;;
78143;SDS011;67394;52.522;13.622;2023-07-16T02:49:11;3.63;;;2.42;;
78143;SDS011;67394;52.522;13.622;2023-07-16T02:51:37;3.00;;;2.42;;
78143;SDS011;67394;52.522;13.622;2023-07-16T02:54:04;4.55;;;3.10;;
78143;SDS011;67394;52.522;13.622;2023-07-16T02:56:30;5.22;;;2.75;;
78143;SDS011;67394;52.522;13.622;2023-07-16T02:58:57;2.95;;;2.22;;
78143;SDS011;67394;52.522;13.622;2023-07-16T03:01:23;4.25;;;2.90;;
78143;SDS011;67394;52.522;13.622;2023-07-16T03:03:50;2.85;;;2.30;;
78143;SDS011;67394;52.522;13.622;2023-07-16T03:06:16;3.47;;;2.33;;
78143;SDS011;67394;52.522;13.622;2023-07-16T03:08:47;3.58;;;2.30;;
78143;SDS011;67394;52.522;13.622;2023-07-16T03:11:14;4.47;;;2.97;;
78143;SDS011;67394;52.522;13.622;2023-07-16T03:13:40;3.83;;;2.72;;
78143;SDS011;67394;52.522;13.622;2023-07-16T03:16:07;3.65;;;2.53;;
78143;SDS011;67394;52.522;13.622;2023-07-16T03:18:34;3.35;;;2.45;;
78143;SDS011;67394;52.522;13.622;2023-07-16T03:21:00;4.78;;;3.22;;
78143;SDS011;67394;52.522;13.622;2023-07-16T03:23:27;4.78;;;2.83;;
78143;SDS011;67394;52.522;13.622;2023-07-16T03:25:53;3.25;;;2.47;;
78143;SDS011;67394;52.522;13.622;2023-07-16T03:28:20;2.88;;;2.10;;
78143;SDS011;67394;52.522;13.622;2023-07-16T03:30:47;3.78;;;2.28;;
78143;SDS011;67394;52.522;13.622;2023-07-16T03:33:14;4.07;;;2.80;;
78143;SDS011;67394;52.522;13.622;2023-07-16T03:35:43;3.45;;;2.47;;
78143;SDS011;67394;52.522;13.622;2023-07-16T03:38:10;2.90;;;2.20;;
78143;SDS011;67394;52.522;13.622;2023-07-16T03:40:37;4.00;;;2.50;;
78143;SDS011;67394;52.522;13.622;2023-07-16T03:43:04;3.17;;;2.30;;
78143;SDS011;67394;52.522;13.622;2023-07-16T03:45:31;3.33;;;2.53;;
78143;SDS011;67394;52.522;13.622;2023-07-16T03:47:57;3.20;;;2.35;;
78143;SDS011;67394;52.522;13.622;2023-07-16T03:50:24;4.07;;;2.38;;
78143;SDS011;67394;52.522;13.622;2023-07-16T03:52:50;3.30;;;2.40;;
78143;SDS011;67394;52.522;13.622;2023-07-16T03:55:17;2.53;;;2.00;;
78143;SDS011;67394;52.522;13.622;2023-07-16T03:57:43;3.60;;;2.38;;
78143;SDS011;67394;52.522;13.622;2023-07-16T04:00:10;3.17;;;2.20;;
78143;SDS011;67394;52.522;13.622;2023-07-16T04:02:37;3.42;;;2.10;;
78143;SDS011;67394;52.522;13.622;2023-07-16T04:05:03;3.13;;;2.00;;
78143;SDS011;67394;52.522;13.622;2023-07-16T04:09:56;2.65;;;1.98;;
78143;SDS011;67394;52.522;13.622;2023-07-16T04:12:23;2.30;;;1.70;;
78143;SDS011;67394;52.522;13.622;2023-07-16T04:14:54;3.20;;;2.20;;
78143;SDS011;67394;52.522;13.622;2023-07-16T04:17:22;3.13;;;2.60;;
78143;SDS011;67394;52.522;13.622;2023-07-16T04:19:48;2.78;;;1.92;;
78143;SDS011;67394;52.522;13.622;2023-07-16T04:22:15;3.25;;;2.20;;
78143;SDS011;67394;52.522;13.622;2023-07-16T04:24:42;2.90;;;2.28;;
78143;SDS011;67394;52.522;13.622;2023-07-16T04:27:08;4.00;;;2.30;;
78143;SDS011;67394;52.522;13.622;2023-07-16T04:29:35;3.22;;;2.35;;
78143;SDS011;67394;52.522;13.622;2023-07-16T04:32:02;3.13;;;2.45;;
78143;SDS011;67394;52.522;13.622;2023-07-16T04:34:28;4.05;;;2.38;;
78143;SDS011;67394;52.522;13.622;2023-07-16T04:36:55;2.80;;;2.22;;
78143;SDS011;67394;52.522;13.622;2023-07-16T04:39:21;3.33;;;2.10;;
78143;SDS011;67394;52.522;13.622;2023-07-16T04:41:47;3.70;;;2.60;;
78143;SDS011;67394;52.522;13.622;2023-07-16T04:44:14;3.08;;;2.28;;
78143;SDS011;67394;52.522;13.622;2023-07-16T04:46:40;3.10;;;2.45;;
78143;SDS011;67394;52.522;13.622;2023-07-16T04:49:07;4.00;;;2.80;;
78143;SDS011;67394;52.522;13.622;2023-07-16T04:51:33;3.28;;;2.45;;
78143;SDS011;67394;52.522;13.622;2023-07-16T04:54:00;3.47;;;2.53;;
78143;SDS011;67394;52.522;13.622;2023-07-16T04:56:26;3.65;;;2.58;;
78143;SDS011;67394;52.522;13.622;2023-07-16T04:58:52;3.10;;;2.47;;
78143;SDS011;67394;52.522;13.622;2023-07-16T05:01:19;4.90;;;2.95;;
78143;SDS011;67394;52.522;13.622;2023-07-16T05:03:46;3.97;;;2.45;;
78143;SDS011;67394;52.522;13.622;2023-07-16T05:06:12;4.38;;;2.92;;
78143;SDS011;67394;52.522;13.622;2023-07-16T05:08:39;5.20;;;3.10;;
78143;SDS011;67394;52.522;13.622;2023-07-16T05:11:05;4.18;;;3.00;;
78143;SDS011;67394;52.522;13.622;2023-07-16T05:13:32;5.60;;;3.15;;
78143;SDS011;67394;52.522;13.622;2023-07-16T05:15:59;4.13;;;2.92;;
78143;SDS011;67394;52.522;13.622;2023-07-16T05:18:25;5.70;;;3.05;;
78143;SDS011;67394;52.522;13.622;2023-07-16T05:20:52;3.88;;;3.13;;
78143;SDS011;67394;52.522;13.622;2023-07-16T05:23:18;4.10;;;3.00;;
78143;SDS011;67394;52.522;13.622;2023-07-16T05:25:45;4.38;;;3.22;;
78143;SDS011;67394;52.522;13.622;2023-07-16T05:28:15;5.82;;;3.05;;
78143;SDS011;67394;52.522;13.622;2023-07-16T05:30:42;5.10;;;3.17;;
78143;SDS011;67394;52.522;13.622;2023-07-16T05:33:09;4.07;;;3.00;;
78143;SDS011;67394;52.522;13.622;2023-07-16T05:35:37;4.55;;;3.00;;
78143;SDS011;67394;52.522;13.622;2023-07-16T05:38:04;4.65;;;3.33;;
78143;SDS011;67394;52.522;13.622;2023-07-16T05:40:31;4.35;;;3.10;;
78143;SDS011;67394;52.522;13.622;2023-07-16T05:42:57;3.28;;;2.90;;
78143;SDS011;67394;52.522;13.622;2023-07-16T05:45:24;5.03;;;2.92;;
78143;SDS011;67394;52.522;13.622;2023-07-16T05:47:50;4.68;;;3.28;;
78143;SDS011;67394;52.522;13.622;2023-07-16T05:50:17;5.50;;;3.42;;
78143;SDS011;67394;52.522;13.622;2023-07-16T05:52:43;4.95;;;3.30;;
78143;SDS011;67394;52.522;13.622;2023-07-16T05:57:36;3.25;;;2.90;;
78143;SDS011;67394;52.522;13.622;2023-07-16T06:00:03;5.25;;;2.85;;
78143;SDS011;67394;52.522;13.622;2023-07-16T06:02:30;5.20;;;3.00;;
78143;SDS011;67394;52.522;13.622;2023-07-16T06:04:57;4.78;;;3.03;;
78143;SDS011;67394;52.522;13.622;2023-07-16T06:07:23;3.55;;;3.05;;
78143;SDS011;67394;52.522;13.622;2023-07-16T06:09:50;5.13;;;2.80;;
78143;SDS011;67394;52.522;13.622;2023-07-16T06:12:16;4.22;;;3.33;;
78143;SDS011;67394;52.522;13.622;2023-07-16T06:14:45;3.78;;;2.72;;
78143;SDS011;67394;52.522;13.622;2023-07-16T06:17:11;4.10;;;2.97;;
78143;SDS011;67394;52.522;13.622;2023-07-16T06:22:04;3.92;;;3.13;;
78143;SDS011;67394;52.522;13.622;2023-07-16T06:24:31;4.20;;;2.97;;
78143;SDS011;67394;52.522;13.622;2023-07-16T06:29:25;3.40;;;2.75;;
78143;SDS011;67394;52.522;13.622;2023-07-16T06:31:55;4.07;;;3.00;;
78143;SDS011;67394;52.522;13.622;2023-07-16T06:34:24;4.07;;;3.15;;
78143;SDS011;67394;52.522;13.622;2023-07-16T06:36:51;4.57;;;3.00;;
78143;SDS011;67394;52.522;13.622;2023-07-16T06:39:17;4.72;;;2.75;;
78143;SDS011;67394;52.522;13.622;2023-07-16T06:44:11;5.13;;;3.05;;
78143;SDS011;67394;52.522;13.622;2023-07-16T06:49:05;5.05;;;2.83;;
78143;SDS011;67394;52.522;13.622;2023-07-16T06:51:32;6.63;;;3.10;;
78143;SDS011;67394;52.522;13.622;2023-07-16T06:56:26;4.53;;;2.45;;
78143;SDS011;67394;52.522;13.622;2023-07-16T06:58:52;3.63;;;2.60;;
78143;SDS011;67394;52.522;13.622;2023-07-16T07:01:19;4.13;;;2.80;;
78143;SDS011;67394;52.522;13.622;2023-07-16T07:03:46;4.00;;;3.20;;
78143;SDS011;67394;52.522;13.622;2023-07-16T07:08:39;4.22;;;2.75;;
78143;SDS011;67394;52.522;13.622;2023-07-16T07:11:06;3.08;;;2.60;;
78143;SDS011;67394;52.522;13.622;2023-07-16T07:13:33;3.17;;;2.70;;
78143;SDS011;67394;52.522;13.622;2023-07-16T07:15:59;4.22;;;2.85;;
78143;SDS011;67394;52.522;13.622;2023-07-16T07:18:26;3.75;;;2.92;;
78143;SDS011;67394;52.522;13.622;2023-07-16T07:20:52;3.05;;;2.70;;
78143;SDS011;67394;52.522;13.622;2023-07-16T07:23:19;3.42;;;2.67;;
78143;SDS011;67394;52.522;13.622;2023-07-16T07:28:16;3.42;;;2.80;;
78143;SDS011;67394;52.522;13.622;2023-07-16T07:30:43;4.10;;;2.17;;
78143;SDS011;67394;52.522;13.622;2023-07-16T07:33:12;4.82;;;3.28;;
78143;SDS011;67394;52.522;13.622;2023-07-16T07:35:39;4.85;;;2.90;;
78143;SDS011;67394;52.522;13.622;2023-07-16T07:38:06;3.00;;;2.25;;
78143;SDS011;67394;52.522;13.622;2023-07-16T07:42:59;2.90;;;2.60;;
78143;SDS011;67394;52.522;13.622;2023-07-16T07:45:26;3.33;;;2.78;;
78143;SDS011;67394;52.522;13.622;2023-07-16T07:47:52;3.35;;;2.55;;
78143;SDS011;67394;52.522;13.622;2023-07-16T07:52:45;4.15;;;2.67;;
78143;SDS011;67394;52.522;13.622;2023-07-16T07:55:12;3.53;;;2.78;;
78143;SDS011;67394;52.522;13.622;2023-07-16T07:57:39;3.08;;;2.50;;
78143;SDS011;67394;52.522;13.622;2023-07-16T08:00:05;5.88;;;3.05;;
78143;SDS011;67394;52.522;13.622;2023-07-16T08:02:32;4.10;;;2.38;;
78143;SDS011;67394;52.522;13.622;2023-07-16T08:04:59;4.75;;;2.80;;
78143;SDS011;67394;52.522;13.622;2023-07-16T08:07:30;3.38;;;2.45;;
78143;SDS011;67394;52.522;13.622;2023-07-16T08:12:24;4.55;;;2.90;;
78143;SDS011;67394;52.522;13.622;2023-07-16T08:14:50;6.25;;;2.85;;
78143;SDS011;67394;52.522;13.622;2023-07-16T08:17:17;3.30;;;2.70;;
78143;SDS011;67394;52.522;13.622;2023-07-16T08:19:48;2.90;;;2.53;;
78143;SDS011;67394;52.522;13.622;2023-07-16T08:22:14;3.65;;;2.40;;
78143;SDS011;67394;52.522;13.622;2023-07-16T08:24:41;3.28;;;2.40;;
78143;SDS011;67394;52.522;13.622;2023-07-16T08:27:08;2.75;;;2.33;;
78143;SDS011;67394;52.522;13.622;2023-07-16T08:29:35;3.20;;;2.35;;
78143;SDS011;67394;52.522;13.622;2023-07-16T08:32:02;4.32;;;2.63;;
78143;SDS011;67394;52.522;13.622;2023-07-16T08:34:29;3.33;;;2.70;;
78143;SDS011;67394;52.522;13.622;2023-07-16T08:39:23;2.90;;;2.33;;
78143;SDS011;67394;52.522;13.622;2023-07-16T08:41:51;2.63;;;2.30;;
78143;SDS011;67394;52.522;13.622;2023-07-16T08:44:19;2.97;;;2.30;;
78143;SDS011;67394;52.522;13.622;2023-07-16T08:46:47;2.70;;;2.50;;
78143;SDS011;67394;52.522;13.622;2023-07-16T08:49:14;2.30;;;2.03;;
78143;SDS011;67394;52.522;13.622;2023-07-16T08:51:44;3.63;;;2.00;;
78143;SDS011;67394;52.522;13.622;2023-07-16T08:54:13;3.00;;;2.00;;
78143;SDS011;67394;52.522;13.622;2023-07-16T08:56:41;2.50;;;2.00;;
78143;SDS011;67394;52.522;13.622;2023-07-16T08:59:08;3.15;;;2.10;;
78143;SDS011;67394;52.522;13.622;2023-07-16T09:01:39;3.28;;;2.33;;
78143;SDS011;67394;52.522;13.622;2023-07-16T09:04:05;3.10;;;2.60;;
78143;SDS011;67394;52.522;13.622;2023-07-16T09:06:32;3.05;;;2.40;;
78143;SDS011;67394;52.522;13.622;2023-07-16T09:11:25;4.07;;;2.38;;
78143;SDS011;67394;52.522;13.622;2023-07-16T09:13:52;4.00;;;2.30;;
78143;SDS011;67394;52.522;13.622;2023-07-16T09:16:20;3.35;;;2.40;;
78143;SDS011;67394;52.522;13.622;2023-07-16T09:18:47;3.22;;;2.25;;
78143;SDS011;67394;52.522;13.622;2023-07-16T09:21:15;2.72;;;2.17;;
78143;SDS011;67394;52.522;13.622;2023-07-16T09:23:42;4.10;;;2.25;;
78143;SDS011;67394;52.522;13.622;2023-07-16T09:26:09;2.28;;;1.92;;
78143;SDS011;67394;52.522;13.622;2023-07-16T09:28:36;2.60;;;2.00;;
78143;SDS011;67394;52.522;13.622;2023-07-16T09:33:30;2.75;;;2.00;;
78143;SDS011;67394;52.522;13.622;2023-07-16T09:35:58;2.88;;;2.17;;
78143;SDS011;67394;52.522;13.622;2023-07-16T09:38:25;2.80;;;2.20;;
78143;SDS011;67394;52.522;13.622;2023-07-16T09:40:55;2.78;;;2.45;;
78143;SDS011;67394;52.522;13.622;2023-07-16T09:43:23;3.55;;;2.50;;
78143;SDS011;67394;52.522;13.622;2023-07-16T09:45:50;4.25;;;2.15;;
78143;SDS011;67394;52.522;13.622;2023-07-16T09:48:16;4.25;;;2.50;;
78143;SDS011;67394;52.522;13.622;2023-07-16T09:50:46;2.20;;;1.98;;
78143;SDS011;67394;52.522;13.622;2023-07-16T09:53:18;2.95;;;2.28;;
78143;SDS011;67394;52.522;13.622;2023-07-16T09:55:47;4.10;;;2.25;;
78143;SDS011;67394;52.522;13.622;2023-07-16T09:58:14;3.45;;;2.55;;
78143;SDS011;67394;52.522;13.622;2023-07-16T10:00:45;3.35;;;2.20;;
78143;SDS011;67394;52.522;13.622;2023-07-16T10:03:12;3.22;;;2.22;;
78143;SDS011;67394;52.522;13.622;2023-07-16T10:05:40;2.88;;;2.38;;
78143;SDS011;67394;52.522;13.622;2023-07-16T10:08:19;3.45;;;2.45;;
78143;SDS011;67394;52.522;13.622;2023-07-16T10:13:23;4.25;;;2.67;;
78143;SDS011;67394;52.522;13.622;2023-07-16T10:15:55;3.72;;;2.42;;
78143;SDS011;67394;52.522;13.622;2023-07-16T10:18:24;2.88;;;2.38;;
78143;SDS011;67394;52.522;13.622;2023-07-16T10:20:51;2.97;;;2.20;;
78143;SDS011;67394;52.522;13.622;2023-07-16T10:23:18;3.55;;;2.00;;
78143;SDS011;67394;52.522;13.622;2023-07-16T10:25:58;2.83;;;2.15;;
78143;SDS011;67394;52.522;13.622;2023-07-16T10:28:25;5.25;;;2.35;;
78143;SDS011;67394;52.522;13.622;2023-07-16T10:30:52;3.78;;;2.03;;
78143;SDS011;67394;52.522;13.622;2023-07-16T10:33:19;3.03;;;2.40;;
78143;SDS011;67394;52.522;13.622;2023-07-16T10:38:12;3.58;;;2.15;;
78143;SDS011;67394;52.522;13.622;2023-07-16T10:40:43;3.15;;;2.05;;
78143;SDS011;67394;52.522;13.622;2023-07-16T10:43:11;3.30;;;2.45;;
78143;SDS011;67394;52.522;13.622;2023-07-16T10:45:38;4.75;;;2.25;;
78143;SDS011;67394;52.522;13.622;2023-07-16T10:48:04;3.08;;;2.20;;
78143;SDS011;67394;52.522;13.622;2023-07-16T10:50:32;3.58;;;2.45;;
78143;SDS011;67394;52.522;13.622;2023-07-16T10:53:00;4.50;;;2.53;;
78143;SDS011;67394;52.522;13.622;2023-07-16T10:55:27;2.92;;;2.47;;
78143;SDS011;67394;52.522;13.622;2023-07-16T10:57:55;3.10;;;2.53;;
78143;SDS011;67394;52.522;13.622;2023-07-16T11:00:23;3.30;;;2.25;;
78143;SDS011;67394;52.522;13.622;2023-07-16T11:02:50;2.83;;;2.20;;
78143;SDS011;67394;52.522;13.622;2023-07-16T11:05:18;4.03;;;2.55;;
78143;SDS011;67394;52.522;13.622;2023-07-16T11:07:45;2.90;;;2.20;;
78143;SDS011;67394;52.522;13.622;2023-07-16T11:10:19;3.13;;;2.35;;
78143;SDS011;67394;52.522;13.622;2023-07-16T11:12:50;3.42;;;2.22;;
78143;SDS011;67394;52.522;13.622;2023-07-16T11:15:17;3.45;;;2.17;;
78143;SDS011;67394;52.522;13.622;2023-07-16T11:17:48;2.20;;;1.80;;
78143;SDS011;67394;52.522;13.622;2023-07-16T11:20:15;3.20;;;2.10;;
78143;SDS011;67394;52.522;13.622;2023-07-16T11:22:42;2.80;;;2.30;;
78143;SDS011;67394;52.522;13.622;2023-07-16T11:25:11;2.90;;;2.28;;
78143;SDS011;67394;52.522;13.622;2023-07-16T11:27:40;3.42;;;2.08;;
78143;SDS011;67394;52.522;13.622;2023-07-16T11:30:08;2.75;;;2.30;;
78143;SDS011;67394;52.522;13.622;2023-07-16T11:32:36;3.00;;;2.45;;
78143;SDS011;67394;52.522;13.622;2023-07-16T11:35:05;2.63;;;2.17;;
78143;SDS011;67394;52.522;13.622;2023-07-16T11:37:41;2.95;;;2.60;;
78143;SDS011;67394;52.522;13.622;2023-07-16T11:40:08;3.35;;;2.70;;
78143;SDS011;67394;52.522;13.622;2023-07-16T11:42:37;5.13;;;2.70;;
78143;SDS011;67394;52.522;13.622;2023-07-16T11:45:14;3.85;;;2.60;;
78143;SDS011;67394;52.522;13.622;2023-07-16T11:47:43;2.95;;;2.53;;
78143;SDS011;67394;52.522;13.622;2023-07-16T11:50:10;3.35;;;2.25;;
78143;SDS011;67394;52.522;13.622;2023-07-16T11:52:37;3.20;;;2.63;;
78143;SDS011;67394;52.522;13.622;2023-07-16T11:55:05;3.40;;;2.33;;
78143;SDS011;67394;52.522;13.622;2023-07-16T11:57:32;2.50;;;2.10;;
78143;SDS011;67394;52.522;13.622;2023-07-16T11:59:59;3.72;;;2.40;;
78143;SDS011;67394;52.522;13.622;2023-07-16T12:02:26;3.08;;;2.20;;
78143;SDS011;67394;52.522;13.622;2023-07-16T12:04:53;5.82;;;2.70;;
78143;SDS011;67394;52.522;13.622;2023-07-16T12:07:34;3.05;;;2.22;;
78143;SDS011;67394;52.522;13.622;2023-07-16T12:10:05;2.80;;;2.30;;
78143;SDS011;67394;52.522;13.622;2023-07-16T12:12:33;4.78;;;2.33;;
78143;SDS011;67394;52.522;13.622;2023-07-16T12:15:00;2.85;;;2.40;;
78143;SDS011;67394;52.522;13.622;2023-07-16T12:17:27;2.63;;;2.10;;
78143;SDS011;67394;52.522;13.622;2023-07-16T12:19:53;3.63;;;2.35;;
78143;SDS011;67394;52.522;13.622;2023-07-16T12:22:23;3.30;;;2.10;;
78143;SDS011;67394;52.522;13.622;2023-07-16T12:24:50;3.65;;;2.10;;
78143;SDS011;67394;52.522;13.622;2023-07-16T12:27:17;2.83;;;2.17;;
78143;SDS011;67394;52.522;13.622;2023-07-16T12:29:45;3.80;;;1.90;;
78143;SDS011;67394;52.522;13.622;2023-07-16T12:32:13;3.17;;;2.00;;
78143;SDS011;67394;52.522;13.622;2023-07-16T12:34:40;2.88;;;2.10;;
78143;SDS011;67394;52.522;13.622;2023-07-16T12:37:06;3.13;;;2.05;;
78143;SDS011;67394;52.522;13.622;2023-07-16T12:39:33;2.13;;;1.70;;
78143;SDS011;67394;52.522;13.622;2023-07-16T12:42:00;2.72;;;1.80;;
78143;SDS011;67394;52.522;13.622;2023-07-16T12:44:27;2.70;;;1.90;;
78143;SDS011;67394;52.522;13.622;2023-07-16T12:46:53;3.50;;;1.77;;
78143;SDS011;67394;52.522;13.622;2023-07-16T12:49:20;4.35;;;2.00;;
78143;SDS011;67394;52.522;13.622;2023-07-16T12:51:46;3.45;;;1.88;;
78143;SDS011;67394;52.522;13.622;2023-07-16T12:54:13;2.95;;;1.70;;
78143;SDS011;67394;52.522;13.622;2023-07-16T12:56:40;3.85;;;1.80;;
78143;SDS011;67394;52.522;13.622;2023-07-16T12:59:07;2.80;;;2.15;;
78143;SDS011;67394;52.522;13.622;2023-07-16T13:01:33;2.33;;;1.95;;
78143;SDS011;67394;52.522;13.622;2023-07-16T13:04:00;2.40;;;1.90;;
78143;SDS011;67394;52.522;13.622;2023-07-16T13:06:27;2.30;;;1.80;;
78143;SDS011;67394;52.522;13.622;2023-07-16T13:08:53;3.38;;;2.17;;
78143;SDS011;67394;52.522;13.622;2023-07-16T13:11:20;2.75;;;2.08;;
78143;SDS011;67394;52.522;13.622;2023-07-16T13:13:47;3.08;;;1.70;;
78143;SDS011;67394;52.522;13.622;2023-07-16T13:16:15;2.42;;;1.80;;
78143;SDS011;67394;52.522;13.622;2023-07-16T13:18:42;2.13;;;1.80;;
78143;SDS011;67394;52.522;13.622;2023-07-16T13:21:09;3.42;;;1.65;;
78143;SDS011;67394;52.522;13.622;2023-07-16T13:23:36;2.92;;;2.00;;
78143;SDS011;67394;52.522;13.622;2023-07-16T13:26:02;3.17;;;1.92;;
78143;SDS011;67394;52.522;13.622;2023-07-16T13:28:29;2.65;;;2.08;;
78143;SDS011;67394;52.522;13.622;2023-07-16T13:30:56;4.30;;;1.88;;
78143;SDS011;67394;52.522;13.622;2023-07-16T13:33:22;3.72;;;1.80;;
78143;SDS011;67394;52.522;13.622;2023-07-16T13:35:49;2.33;;;1.83;;
78143;SDS011;67394;52.522;13.622;2023-07-16T13:38:16;2.78;;;1.83;;
78143;SDS011;67394;52.522;13.622;2023-07-16T13:40:42;2.92;;;2.30;;
78143;SDS011;67394;52.522;13.622;2023-07-16T13:43:10;3.35;;;2.20;;
78143;SDS011;67394;52.522;13.622;2023-07-16T13:48:05;2.22;;;1.42;;
78143;SDS011;67394;52.522;13.622;2023-07-16T13:50:31;2.63;;;1.90;;
78143;SDS011;67394;52.522;13.622;2023-07-16T13:52:58;3.28;;;1.60;;
78143;SDS011;67394;52.522;13.622;2023-07-16T13:55:25;2.85;;;1.90;;
78143;SDS011;67394;52.522;13.622;2023-07-16T13:57:51;2.17;;;1.77;;
78143;SDS011;67394;52.522;13.622;2023-07-16T14:00:18;3.00;;;1.80;;
78143;SDS011;67394;52.522;13.622;2023-07-16T14:02:45;3.67;;;1.95;;
78143;SDS011;67394;52.522;13.622;2023-07-16T14:05:12;2.55;;;1.75;;
78143;SDS011;67394;52.522;13.622;2023-07-16T14:07:39;2.53;;;1.60;;
78143;SDS011;67394;52.522;13.622;2023-07-16T14:10:06;2.60;;;1.67;;
78143;SDS011;67394;52.522;13.622;2023-07-16T14:12:33;3.05;;;1.85;;
78143;SDS011;67394;52.522;13.622;2023-07-16T14:15:02;4.25;;;1.95;;
78143;SDS011;67394;52.522;13.622;2023-07-16T14:17:29;2.70;;;1.92;;
78143;SDS011;67394;52.522;13.622;2023-07-16T14:19:56;2.28;;;1.55;;
78143;SDS011;67394;52.522;13.622;2023-07-16T14:22:22;2.45;;;1.70;;
78143;SDS011;67394;52.522;13.622;2023-07-16T14:24:51;2.50;;;1.85;;
78143;SDS011;67394;52.522;13.622;2023-07-16T14:27:17;2.22;;;1.70;;
78143;SDS011;67394;52.522;13.622;2023-07-16T14:29:44;1.80;;;1.58;;
78143;SDS011;67394;52.522;13.622;2023-07-16T14:32:28;3.25;;;1.73;;
78143;SDS011;67394;52.522;13.622;2023-07-16T14:34:55;2.08;;;1.38;;
78143;SDS011;67394;52.522;13.622;2023-07-16T14:37:22;1.80;;;1.50;;
78143;SDS011;67394;52.522;13.622;2023-07-16T14:39:48;2.55;;;1.80;;
78143;SDS011;67394;52.522;13.622;2023-07-16T14:42:15;2.58;;;1.70;;
78143;SDS011;67394;52.522;13.622;2023-07-16T14:44:43;3.28;;;1.90;;
78143;SDS011;67394;52.522;13.622;2023-07-16T14:47:10;3.97;;;1.98;;
78143;SDS011;67394;52.522;13.622;2023-07-16T14:49:37;2.40;;;1.80;;
78143;SDS011;67394;52.522;13.622;2023-07-16T14:52:04;2.45;;;1.88;;
78143;SDS011;67394;52.522;13.622;2023-07-16T14:54:31;2.75;;;1.67;;
78143;SDS011;67394;52.522;13.622;2023-07-16T14:56:58;2.22;;;1.70;;
78143;SDS011;67394;52.522;13.622;2023-07-16T14:59:24;2.95;;;1.75;;
78143;SDS011;67394;52.522;13.622;2023-07-16T15:01:51;2.50;;;1.75;;
78143;SDS011;67394;52.522;13.622;2023-07-16T15:04:19;2.55;;;1.50;;
78143;SDS011;67394;52.522;13.622;2023-07-16T15:09:13;2.67;;;1.70;;
78143;SDS011;67394;52.522;13.622;2023-07-16T15:14:06;2.72;;;1.50;;
78143;SDS011;67394;52.522;13.622;2023-07-16T15:16:33;4.43;;;1.70;;
78143;SDS011;67394;52.522;13.622;2023-07-16T15:19:01;3.65;;;1.75;;
78143;SDS011;67394;52.522;13.622;2023-07-16T15:21:28;4.95;;;1.75;;
78143;SDS011;67394;52.522;13.622;2023-07-16T15:23:55;2.67;;;1.83;;
78143;SDS011;67394;52.522;13.622;2023-07-16T15:28:48;2.95;;;1.80;;
78143;SDS011;67394;52.522;13.622;2023-07-16T15:31:14;4.22;;;1.90;;
78143;SDS011;67394;52.522;13.622;2023-07-16T15:33:41;2.75;;;1.73;;
78143;SDS011;67394;52.522;13.622;2023-07-16T15:36:08;2.63;;;1.80;;
78143;SDS011;67394;52.522;13.622;2023-07-16T15:41:04;2.20;;;1.60;;